createdAt,value
2019-03-04T00:01:03.997Z,96176.38
2019-03-04T00:03:33.591Z,96182.37
2019-03-04T00:06:03.278Z,96173.79
2019-03-04T00:08:33.037Z,96169.11
2019-03-04T00:11:02.681Z,96173.11
2019-03-04T00:13:32.347Z,96172.80
2019-03-04T00:16:01.964Z,96169.50
2019-03-04T00:18:31.622Z,96169.98
2019-03-04T00:21:01.233Z,96167.55
2019-03-04T00:23:30.820Z,96155.84
2019-03-04T00:26:00.425Z,96166.42
2019-03-04T00:28:30.033Z,96170.07
2019-03-04T00:30:59.696Z,96166.73
2019-03-04T00:33:29.312Z,96173.43
2019-03-04T00:35:58.924Z,96169.52
2019-03-04T00:38:28.506Z,96169.36
2019-03-04T00:40:58.123Z,96163.50
2019-03-04T00:43:27.733Z,96168.26
2019-03-04T00:45:57.316Z,96167.51
2019-03-04T00:48:26.931Z,96159.83
2019-03-04T00:50:56.516Z,96154.78
2019-03-04T00:53:26.210Z,96152.87
2019-03-04T00:55:55.800Z,96150.41
2019-03-04T00:58:25.393Z,96143.69
2019-03-04T01:00:55.005Z,96134.89
2019-03-04T01:03:24.664Z,96135.39
2019-03-04T01:05:54.278Z,96130.11
2019-03-04T01:08:23.936Z,96126.50
2019-03-04T01:10:53.762Z,96130.63
2019-03-04T01:13:24.586Z,96122.37
2019-03-04T01:15:54.219Z,96118.75
2019-03-04T01:18:23.803Z,96117.27
2019-03-04T01:20:53.390Z,96105.84
2019-03-04T01:23:23.007Z,96109.49
2019-03-04T01:25:52.684Z,96102.20
2019-03-04T01:28:22.274Z,96105.16
2019-03-04T01:30:51.960Z,96095.77
2019-03-04T01:33:21.551Z,96091.45
2019-03-04T01:35:51.235Z,96084.05
2019-03-04T01:38:20.817Z,96088.80
2019-03-04T01:40:50.430Z,96084.35
2019-03-04T01:43:20.016Z,96087.16
2019-03-04T01:45:49.638Z,96081.35
2019-03-04T01:48:19.390Z,96076.59
2019-03-04T01:50:48.972Z,96076.59
2019-03-04T01:53:18.584Z,96075.41
2019-03-04T01:55:48.200Z,96071.38
2019-03-04T01:58:17.809Z,96060.27
2019-03-04T02:00:47.414Z,96055.19
2019-03-04T02:03:17.095Z,96049.84
2019-03-04T02:05:46.948Z,96048.17
2019-03-04T02:08:16.758Z,96051.31
2019-03-04T02:10:46.341Z,96049.28
2019-03-04T02:13:15.925Z,96043.35
2019-03-04T02:15:45.609Z,96037.73
2019-03-04T02:18:15.233Z,96031.82
2019-03-04T02:20:44.885Z,96036.92
2019-03-04T02:23:14.479Z,96026.86
2019-03-04T02:25:51.612Z,96021.69
2019-03-04T02:28:21.215Z,96019.08
2019-03-04T02:30:51.691Z,96023.86
2019-03-04T02:33:21.274Z,96017.12
2019-03-04T02:35:50.930Z,96014.08
2019-03-04T02:38:20.613Z,96010.95
2019-03-04T02:40:50.299Z,96012.23
2019-03-04T02:43:19.898Z,96002.01
2019-03-04T02:45:49.504Z,96004.36
2019-03-04T02:48:19.085Z,96008.66
2019-03-04T02:50:48.705Z,96007.78
2019-03-04T02:53:18.293Z,96007.91
2019-03-04T02:55:47.909Z,96002.16
2019-03-04T02:58:17.517Z,96000.30
2019-03-04T03:00:47.204Z,96002.84
2019-03-04T03:03:16.786Z,96000.16
2019-03-04T03:05:46.467Z,96004.42
2019-03-04T03:08:16.077Z,95995.27
2019-03-04T03:10:45.666Z,95999.22
2019-03-04T03:13:15.282Z,96001.08
2019-03-04T03:15:44.868Z,96002.53
2019-03-04T03:18:14.478Z,95996.69
2019-03-04T03:20:44.066Z,95996.24
2019-03-04T03:23:13.677Z,96000.05
2019-03-04T03:25:43.296Z,95990.19
2019-03-04T03:28:12.884Z,95992.35
2019-03-04T03:30:42.493Z,95981.70
2019-03-04T03:33:12.078Z,95986.50
2019-03-04T03:35:41.692Z,95984.37
2019-03-04T03:38:11.303Z,95983.55
2019-03-04T03:40:41.058Z,95983.22
2019-03-04T03:43:10.853Z,95980.94
2019-03-04T03:45:40.453Z,95979.61
2019-03-04T03:48:10.071Z,95978.61
2019-03-04T03:50:39.686Z,95981.58
2019-03-04T03:53:09.273Z,95978.28
2019-03-04T03:55:38.888Z,95974.02
2019-03-04T03:58:08.478Z,95976.82
2019-03-04T04:00:38.160Z,95972.84
2019-03-04T04:03:07.741Z,95970.05
2019-03-04T04:05:37.393Z,95969.53
2019-03-04T04:08:07.148Z,95976.96
2019-03-04T04:10:36.760Z,95979.78
2019-03-04T04:13:06.367Z,95975.96
2019-03-04T04:15:35.982Z,95971.34
2019-03-04T04:18:05.633Z,95965.23
2019-03-04T04:20:35.244Z,95966.84
2019-03-04T04:23:04.859Z,95967.39
2019-03-04T04:25:34.511Z,95968.00
2019-03-04T04:28:05.772Z,95968.28
2019-03-04T04:30:36.988Z,95968.64
2019-03-04T04:33:06.612Z,95971.42
2019-03-04T04:35:36.198Z,95964.95
2019-03-04T04:38:05.855Z,95963.30
2019-03-04T04:40:35.472Z,95960.81
2019-03-04T04:43:05.251Z,95963.63
2019-03-04T04:45:34.841Z,95964.50
2019-03-04T04:48:04.613Z,95959.36
2019-03-04T04:50:34.633Z,95960.91
2019-03-04T04:53:04.289Z,95959.03
2019-03-04T04:55:33.903Z,95955.31
2019-03-04T04:58:03.557Z,95947.61
2019-03-04T05:00:33.184Z,95946.39
2019-03-04T05:03:02.846Z,95946.13
2019-03-04T05:05:32.536Z,95938.56
2019-03-04T05:08:02.120Z,95944.38
2019-03-04T05:10:31.734Z,95936.09
2019-03-04T05:13:01.390Z,95925.40
2019-03-04T05:15:31.085Z,95929.52
2019-03-04T05:18:00.671Z,95931.05
2019-03-04T05:20:30.347Z,95921.14
2019-03-04T05:22:59.959Z,95916.84
2019-03-04T05:25:29.546Z,95916.47
2019-03-04T05:27:59.169Z,95919.27
2019-03-04T05:30:29.226Z,95920.39
2019-03-04T05:32:58.817Z,95918.05
2019-03-04T05:35:28.516Z,95927.04
2019-03-04T05:37:58.107Z,95929.53
2019-03-04T05:40:27.697Z,95933.52
2019-03-04T05:42:57.310Z,95928.72
2019-03-04T05:45:26.903Z,95923.66
2019-03-04T05:47:56.520Z,95930.70
2019-03-04T05:50:27.042Z,95917.97
2019-03-04T05:52:56.732Z,95928.05
2019-03-04T05:55:26.321Z,95922.77
2019-03-04T05:57:56.002Z,95926.73
2019-03-04T06:00:30.310Z,95920.97
2019-03-04T06:03:04.447Z,95921.83
2019-03-04T06:05:34.089Z,95909.77
2019-03-04T06:08:05.368Z,95908.28
2019-03-04T06:10:34.984Z,95914.88
2019-03-04T06:13:04.711Z,95921.33
2019-03-04T06:15:34.466Z,95912.58
2019-03-04T06:18:04.200Z,95914.39
2019-03-04T06:20:33.952Z,95916.53
2019-03-04T06:23:03.616Z,95916.70
2019-03-04T06:25:33.228Z,95924.77
2019-03-04T06:28:02.851Z,95922.61
2019-03-04T06:30:32.879Z,95921.01
2019-03-04T06:33:02.565Z,95924.02
2019-03-04T06:35:32.381Z,95921.88
2019-03-04T06:38:02.113Z,95919.69
2019-03-04T06:40:31.725Z,95920.22
2019-03-04T06:43:01.315Z,95906.14
2019-03-04T06:45:30.937Z,95912.16
2019-03-04T06:48:00.587Z,95909.67
2019-03-04T06:50:54.612Z,95908.02
2019-03-04T06:53:40.625Z,95908.03
2019-03-04T06:56:29.989Z,95906.91
2019-03-04T06:59:15.256Z,95905.92
2019-03-04T07:01:58.457Z,95903.88
2019-03-04T07:05:06.096Z,95903.75
2019-03-04T07:07:35.688Z,95888.65
2019-03-04T07:10:08.881Z,95885.05
2019-03-04T07:12:38.480Z,95882.84
2019-03-04T07:15:09.608Z,95892.13
2019-03-04T07:17:39.198Z,95890.80
2019-03-04T07:20:20.703Z,95884.66
2019-03-04T07:22:50.291Z,95879.34
2019-03-04T07:25:19.909Z,95878.88
2019-03-04T07:27:49.499Z,95871.05
2019-03-04T07:30:22.501Z,95875.44
2019-03-04T07:32:52.097Z,95877.08
2019-03-04T07:35:21.683Z,95869.97
2019-03-04T07:38:01.414Z,95871.48
2019-03-04T07:40:31.017Z,95865.52
2019-03-04T07:43:02.409Z,95857.58
2019-03-04T07:45:32.090Z,95860.42
2019-03-04T07:48:01.712Z,95849.14
2019-03-04T07:50:31.310Z,95840.61
2019-03-04T07:53:00.936Z,95829.83
2019-03-04T07:55:30.568Z,95834.27
2019-03-04T07:58:00.208Z,95841.97
2019-03-04T08:00:29.832Z,95834.48
2019-03-04T08:02:59.458Z,95834.36
2019-03-04T08:05:29.087Z,95821.50
2019-03-04T08:08:02.893Z,95814.53
2019-03-04T08:11:05.409Z,95810.84
2019-03-04T08:13:48.460Z,95814.55
2019-03-04T08:16:18.082Z,95817.67
2019-03-04T08:18:47.749Z,95814.55
2019-03-04T08:21:17.372Z,95807.66
2019-03-04T08:23:47.008Z,95799.02
2019-03-04T08:26:16.669Z,95798.66
2019-03-04T08:28:46.262Z,95792.05
2019-03-04T08:31:16.095Z,95794.86
2019-03-04T08:33:45.697Z,95786.20
2019-03-04T08:36:15.323Z,95773.23
2019-03-04T08:38:44.924Z,95756.17
2019-03-04T08:41:14.785Z,95744.09
2019-03-04T08:43:44.399Z,95721.03
2019-03-04T08:46:14.031Z,95730.19
2019-03-04T08:48:43.651Z,95736.38
2019-03-04T08:51:13.323Z,95732.49
2019-03-04T08:53:42.953Z,95720.98
2019-03-04T08:56:12.584Z,95712.91
2019-03-04T08:58:42.249Z,95703.45
2019-03-04T09:01:12.213Z,95704.50
2019-03-04T09:03:41.866Z,95704.97
2019-03-04T09:06:11.487Z,95697.68
2019-03-04T09:08:41.113Z,95692.81
2019-03-04T09:11:10.809Z,95687.81
2019-03-04T09:13:40.443Z,95690.27
2019-03-04T09:16:10.068Z,95690.33
2019-03-04T09:18:39.667Z,95682.14
2019-03-04T09:21:09.292Z,95675.48
2019-03-04T09:23:38.893Z,95680.28
2019-03-04T09:26:11.937Z,95683.35
2019-03-04T09:28:41.626Z,95680.77
2019-03-04T09:31:11.245Z,95680.92
2019-03-04T09:33:40.875Z,95679.86
2019-03-04T09:36:10.510Z,95666.01
2019-03-04T09:38:40.116Z,95660.59
2019-03-04T09:41:09.743Z,95656.50
2019-03-04T09:43:39.350Z,95640.96
2019-03-04T09:46:09.051Z,95644.28
2019-03-04T09:48:38.651Z,95638.95
2019-03-04T09:51:08.382Z,95646.17
2019-03-04T09:53:39.757Z,95654.34
2019-03-04T09:56:09.545Z,95651.86
2019-03-04T09:58:39.219Z,95652.08
2019-03-04T10:01:16.148Z,95637.50
2019-03-04T10:03:59.189Z,95626.02
2019-03-04T10:06:53.995Z,95622.53
2019-03-04T10:09:48.865Z,95616.05
2019-03-04T10:12:37.532Z,95609.66
2019-03-04T10:15:47.553Z,95588.19
2019-03-04T10:18:39.630Z,95593.25
2019-03-04T10:21:31.414Z,95605.03
2019-03-04T10:24:20.239Z,95608.22
2019-03-04T10:27:25.446Z,95600.14
2019-03-04T10:30:20.133Z,95597.83
2019-03-04T10:33:15.185Z,95605.71
2019-03-04T10:35:57.841Z,95620.25
2019-03-04T10:38:37.424Z,95627.77
2019-03-04T10:41:26.377Z,95617.83
2019-03-04T10:44:38.117Z,95614.25
2019-03-04T10:47:07.801Z,95624.20
2019-03-04T10:49:38.164Z,95609.97
2019-03-04T10:52:07.771Z,95601.17
2019-03-04T10:54:37.396Z,95591.75
2019-03-04T10:57:07.069Z,95591.95
2019-03-04T10:59:36.694Z,95598.41
2019-03-04T11:02:06.501Z,95584.67
2019-03-04T11:04:36.196Z,95583.03
2019-03-04T11:07:05.937Z,95589.92
2019-03-04T11:09:35.573Z,95577.81
2019-03-04T11:12:05.317Z,95572.03
2019-03-04T11:14:34.950Z,95582.71
2019-03-04T11:17:04.646Z,95584.36
2019-03-04T11:19:34.284Z,95583.01
2019-03-04T11:22:04.055Z,95569.08
2019-03-04T11:24:33.722Z,95565.56
2019-03-04T11:27:03.492Z,95564.42
2019-03-04T11:29:33.116Z,95551.69
2019-03-04T11:32:03.388Z,95541.33
2019-03-04T11:34:33.018Z,95528.47
2019-03-04T11:37:02.623Z,95521.86
2019-03-04T11:39:45.832Z,95510.82
2019-03-04T11:42:15.564Z,95501.31
2019-03-04T11:44:45.189Z,95491.91
2019-03-04T11:47:14.798Z,95483.92
2019-03-04T11:49:44.430Z,95477.27
2019-03-04T11:52:14.034Z,95486.70
2019-03-04T11:54:43.731Z,95478.32
2019-03-04T11:57:13.427Z,95464.22
2019-03-04T11:59:43.026Z,95468.81
2019-03-04T12:02:14.376Z,95475.05
2019-03-04T12:04:44.045Z,95456.02
2019-03-04T12:07:13.808Z,95451.20
2019-03-04T12:09:43.570Z,95448.31
2019-03-04T12:12:13.255Z,95435.90
2019-03-04T12:14:42.926Z,95417.33
2019-03-04T12:17:12.666Z,95425.74
2019-03-04T12:19:42.364Z,95421.33
2019-03-04T12:22:12.058Z,95403.45
2019-03-04T12:24:41.727Z,95398.84
2019-03-04T12:27:11.517Z,95409.67
2019-03-04T12:29:41.254Z,95404.87
2019-03-04T12:32:12.493Z,95393.74
2019-03-04T12:34:42.185Z,95382.79
2019-03-04T12:37:11.784Z,95373.31
2019-03-04T12:39:41.407Z,95364.81
2019-03-04T12:42:11.010Z,95370.27
2019-03-04T12:44:40.661Z,95341.40
2019-03-04T12:47:10.258Z,95338.88
2019-03-04T12:49:39.859Z,95330.09
2019-03-04T12:52:09.482Z,95332.70
2019-03-04T12:54:39.102Z,95330.19
2019-03-04T12:57:08.779Z,95328.27
2019-03-04T12:59:38.381Z,95329.75
2019-03-04T13:02:08.518Z,95321.93
2019-03-04T13:04:38.184Z,95319.31
2019-03-04T13:07:07.843Z,95323.63
2019-03-04T13:09:37.511Z,95317.63
2019-03-04T13:12:07.622Z,95302.31
2019-03-04T13:14:37.275Z,95299.93
2019-03-04T13:17:06.944Z,95284.14
2019-03-04T13:19:36.543Z,95279.38
2019-03-04T13:22:08.739Z,95268.28
2019-03-04T13:24:37.732Z,95257.17
2019-03-04T13:27:07.432Z,95258.55
2019-03-04T13:29:37.135Z,95257.45
2019-03-04T13:32:06.911Z,95254.38
2019-03-04T13:34:36.598Z,95248.08
2019-03-04T13:37:06.338Z,95233.14
2019-03-04T13:39:36.035Z,95234.01
2019-03-04T13:42:05.704Z,95240.96
2019-03-04T13:44:35.410Z,95227.74
2019-03-04T13:47:05.140Z,95218.85
2019-03-04T13:49:34.829Z,95220.55
2019-03-04T13:52:04.526Z,95210.33
2019-03-04T13:54:34.124Z,95200.59
2019-03-04T13:57:03.822Z,95180.06
2019-03-04T13:59:33.462Z,95185.48
2019-03-04T14:02:03.309Z,95182.27
2019-03-04T14:04:33.007Z,95179.19
2019-03-04T14:07:02.638Z,95179.52
2019-03-04T14:09:32.240Z,95179.31
2019-03-04T14:12:01.879Z,95166.62
2019-03-04T14:14:31.476Z,95176.06
2019-03-04T14:17:01.411Z,95169.02
2019-03-04T14:19:31.013Z,95159.81
2019-03-04T14:22:00.628Z,95160.09
2019-03-04T14:24:30.259Z,95160.11
2019-03-04T14:26:59.969Z,95164.16
2019-03-04T14:29:29.572Z,95154.98
2019-03-04T14:31:59.168Z,95156.78
2019-03-04T14:34:28.866Z,95140.38
2019-03-04T14:36:58.469Z,95141.86
2019-03-04T14:39:28.099Z,95144.22
2019-03-04T14:41:57.709Z,95154.31
2019-03-04T14:44:27.315Z,95158.52
2019-03-04T14:46:57.214Z,95162.05
2019-03-04T14:49:26.847Z,95155.94
2019-03-04T14:51:56.477Z,95149.05
2019-03-04T14:54:26.104Z,95131.88
2019-03-04T14:56:55.703Z,95153.11
2019-03-04T14:59:25.328Z,95160.45
2019-03-04T15:01:54.924Z,95150.18
2019-03-04T15:04:24.548Z,95139.09
2019-03-04T15:06:54.172Z,95135.77
2019-03-04T15:09:24.032Z,95155.95
2019-03-04T15:11:53.666Z,95132.16
2019-03-04T15:14:23.288Z,95149.91
2019-03-04T15:17:02.753Z,95152.74
2019-03-04T15:19:24.219Z,95161.55
2019-03-04T15:21:53.844Z,95150.75
2019-03-04T15:24:23.468Z,95159.72
2019-03-04T15:26:53.136Z,95155.55
2019-03-04T15:29:22.835Z,95162.56
2019-03-04T15:31:52.432Z,95157.45
2019-03-04T15:34:22.062Z,95160.05
2019-03-04T15:36:51.862Z,95173.27
2019-03-04T15:39:23.142Z,95183.02
2019-03-04T15:41:52.867Z,95180.47
2019-03-04T15:44:22.500Z,95179.56
2019-03-04T15:46:52.104Z,95181.45
2019-03-04T15:49:21.703Z,95200.44
2019-03-04T15:51:51.458Z,95196.47
2019-03-04T15:54:21.071Z,95190.38
2019-03-04T15:56:50.694Z,95185.45
2019-03-04T15:59:20.394Z,95195.98
2019-03-04T16:01:49.987Z,95191.34
2019-03-04T16:04:19.612Z,95179.50
2019-03-04T16:06:49.281Z,95183.64
2019-03-04T16:09:20.719Z,95194.44
2019-03-04T16:11:50.473Z,95204.50
2019-03-04T16:14:20.110Z,95183.87
2019-03-04T16:16:49.709Z,95184.75
2019-03-04T16:19:19.384Z,95190.59
2019-03-04T16:21:49.068Z,95189.22
2019-03-04T16:24:18.706Z,95188.20
2019-03-04T16:26:48.301Z,95198.36
2019-03-04T16:29:17.905Z,95204.53
2019-03-04T16:31:47.531Z,95207.41
2019-03-04T16:34:17.131Z,95202.77
2019-03-04T16:36:46.758Z,95204.25
2019-03-04T16:39:18.308Z,95221.78
2019-03-04T16:41:47.949Z,95220.91
2019-03-04T16:44:17.548Z,95225.94
2019-03-04T16:46:47.217Z,95230.55
2019-03-04T16:49:16.913Z,95222.00
2019-03-04T16:51:46.576Z,95226.38
2019-03-04T16:54:16.206Z,95223.73
2019-03-04T16:56:45.809Z,95228.74
2019-03-04T16:59:15.427Z,95234.31
2019-03-04T17:01:45.028Z,95231.21
2019-03-04T17:04:14.652Z,95231.19
2019-03-04T17:06:44.516Z,95232.62
2019-03-04T17:09:18.666Z,95227.55
2019-03-04T17:11:48.334Z,95233.88
2019-03-04T17:14:18.025Z,95246.13
2019-03-04T17:16:47.656Z,95233.78
2019-03-04T17:19:17.339Z,95222.09
2019-03-04T17:21:47.010Z,95228.80
2019-03-04T17:24:16.717Z,95228.41
2019-03-04T17:26:46.388Z,95228.21
2019-03-04T17:29:16.010Z,95241.31
2019-03-04T17:31:45.707Z,95243.11
2019-03-04T17:34:15.326Z,95247.83
2019-03-04T17:36:45.023Z,95243.90
2019-03-04T17:39:15.361Z,95241.32
2019-03-04T17:41:44.987Z,95241.36
2019-03-04T17:44:19.171Z,95255.08
2019-03-04T17:46:48.822Z,95271.72
2019-03-04T17:49:18.590Z,95262.97
2019-03-04T17:51:48.182Z,95270.61
2019-03-04T17:54:17.810Z,95277.58
2019-03-04T17:56:47.433Z,95271.44
2019-03-04T17:59:17.025Z,95281.84
2019-03-04T18:01:46.720Z,95282.30
2019-03-04T18:04:16.370Z,95291.27
2019-03-04T18:06:46.089Z,95289.33
2019-03-04T18:09:15.683Z,95292.45
2019-03-04T18:11:45.314Z,95289.00
2019-03-04T18:14:14.913Z,95280.83
2019-03-04T18:16:44.550Z,95300.88
2019-03-04T18:19:14.257Z,95306.53
2019-03-04T18:21:43.858Z,95320.21
2019-03-04T18:24:13.532Z,95326.11
2019-03-04T18:26:45.763Z,95347.30
2019-03-04T18:29:28.554Z,95348.22
2019-03-04T18:32:28.542Z,95356.32
2019-03-04T18:35:25.353Z,95382.36
2019-03-04T18:38:17.721Z,95420.73
2019-03-04T18:41:20.287Z,95470.06
2019-03-04T18:44:22.848Z,95512.11
2019-03-04T18:47:27.095Z,95530.16
2019-03-04T18:49:56.696Z,95554.44
2019-03-04T18:52:26.277Z,95578.56
2019-03-04T18:54:55.892Z,95599.12
2019-03-04T18:57:25.587Z,95580.42
2019-03-04T18:59:55.204Z,95597.28
2019-03-04T19:02:24.868Z,95560.10
2019-03-04T19:04:54.557Z,95558.93
2019-03-04T19:07:24.413Z,95599.48
2019-03-04T19:09:54.028Z,95613.38
2019-03-04T19:12:23.616Z,95632.11
2019-03-04T19:14:53.223Z,95646.88
2019-03-04T19:17:22.838Z,95666.69
2019-03-04T19:19:52.431Z,95683.06
2019-03-04T19:22:22.113Z,95672.31
2019-03-04T19:24:51.737Z,95658.88
2019-03-04T19:27:21.324Z,95687.80
2019-03-04T19:29:50.914Z,95701.83
2019-03-04T19:32:20.589Z,95694.69
2019-03-04T19:34:50.188Z,95675.16
2019-03-04T19:37:19.798Z,95670.70
2019-03-04T19:39:49.389Z,95656.49
2019-03-04T19:42:18.976Z,95651.59
2019-03-04T19:44:48.667Z,95664.00
2019-03-04T19:47:18.286Z,95662.65
2019-03-04T19:49:47.938Z,95671.12
2019-03-04T19:52:17.553Z,95682.13
2019-03-04T19:54:47.209Z,95683.51
2019-03-04T19:57:16.819Z,95673.67
2019-03-04T19:59:46.480Z,95675.91
2019-03-04T20:02:17.708Z,95681.73
2019-03-04T20:04:47.404Z,95693.71
2019-03-04T20:07:17.159Z,95701.05
2019-03-04T20:09:46.776Z,95702.89
2019-03-04T20:12:16.398Z,95708.96
2019-03-04T20:14:45.988Z,95701.63
2019-03-04T20:17:15.568Z,95700.88
2019-03-04T20:19:45.257Z,95693.31
2019-03-04T20:22:15.145Z,95688.12
2019-03-04T20:24:44.733Z,95682.16
2019-03-04T20:27:14.459Z,95669.45
2019-03-04T20:29:44.068Z,95646.73
2019-03-04T20:32:13.673Z,95644.80
2019-03-04T20:34:43.257Z,95620.67
2019-03-04T20:37:13.010Z,95617.09
2019-03-04T20:39:42.622Z,95601.55
2019-03-04T20:42:12.233Z,95585.77
2019-03-04T20:44:41.846Z,95576.96
2019-03-04T20:47:11.437Z,95569.94
2019-03-04T20:49:41.044Z,95572.17
2019-03-04T20:52:10.791Z,95572.37
2019-03-04T20:54:40.380Z,95579.63
2019-03-04T20:57:10.068Z,95568.48
2019-03-04T20:59:39.662Z,95572.67
2019-03-04T21:02:09.444Z,95571.73
2019-03-04T21:04:39.030Z,95568.38
2019-03-04T21:07:08.814Z,95579.77
2019-03-04T21:09:38.744Z,95577.02
2019-03-04T21:12:08.401Z,95578.22
2019-03-04T21:14:38.060Z,95572.15
2019-03-04T21:17:07.815Z,95578.18
2019-03-04T21:19:37.607Z,95586.00
2019-03-04T21:22:07.359Z,95604.69
2019-03-04T21:24:37.117Z,95607.38
2019-03-04T21:27:06.850Z,95592.19
2019-03-04T21:30:02.258Z,95600.89
2019-03-04T21:32:36.495Z,95578.15
2019-03-04T21:35:51.522Z,95576.67
2019-03-04T21:38:24.031Z,95568.39
2019-03-04T21:41:06.680Z,95561.20
2019-03-04T21:43:40.851Z,95547.55
2019-03-04T21:46:34.379Z,95535.11
2019-03-04T21:49:07.676Z,95536.94
2019-03-04T21:51:50.632Z,95538.75
2019-03-04T21:54:20.316Z,95533.33
2019-03-04T21:57:00.256Z,95551.44
2019-03-04T21:59:29.899Z,95541.14
2019-03-04T22:02:09.492Z,95552.34
2019-03-04T22:04:40.217Z,95565.92
2019-03-04T22:07:09.955Z,95564.22
2019-03-04T22:09:39.804Z,95569.39
2019-03-04T22:12:13.345Z,95582.25
2019-03-04T22:14:43.384Z,95585.05
2019-03-04T22:17:13.154Z,95584.81
2019-03-04T22:19:42.897Z,95595.34
2019-03-04T22:22:12.572Z,95603.41
2019-03-04T22:24:42.162Z,95618.04
2019-03-04T22:27:11.844Z,95627.33
2019-03-04T22:29:41.478Z,95635.59
2019-03-04T22:32:11.122Z,95631.92
2019-03-04T22:34:40.722Z,95647.08
2019-03-04T22:37:10.383Z,95655.49
2019-03-04T22:39:40.001Z,95658.05
2019-03-04T22:42:09.586Z,95665.72
2019-03-04T22:44:39.205Z,95671.14
2019-03-04T22:47:08.797Z,95672.42
2019-03-04T22:49:38.407Z,95669.77
2019-03-04T22:52:08.085Z,95657.88
2019-03-04T22:54:37.818Z,95665.23
2019-03-04T22:57:07.501Z,95662.82
2019-03-04T22:59:37.106Z,95658.91
2019-03-04T23:02:07.206Z,95665.45
2019-03-04T23:04:36.821Z,95671.77
2019-03-04T23:07:09.114Z,95681.73
2019-03-04T23:09:59.471Z,95675.62
2019-03-04T23:12:45.436Z,95681.44
2019-03-04T23:15:22.467Z,95698.68
2019-03-04T23:17:52.165Z,95709.24
2019-03-04T23:20:21.781Z,95675.78
2019-03-04T23:22:51.394Z,95707.17
2019-03-04T23:25:20.978Z,95719.87
2019-03-04T23:27:50.602Z,95706.97
2019-03-04T23:30:20.189Z,95708.05
2019-03-04T23:32:49.775Z,95726.95
2019-03-04T23:35:19.457Z,95728.86
2019-03-04T23:37:49.113Z,95742.14
2019-03-04T23:40:18.734Z,95751.84
2019-03-04T23:42:48.317Z,95771.46
2019-03-04T23:45:17.933Z,95760.39
2019-03-04T23:47:47.522Z,95771.22
2019-03-04T23:50:26.672Z,95774.63
2019-03-04T23:52:56.257Z,95784.05
2019-03-04T23:55:25.916Z,95780.18
2019-03-04T23:57:55.524Z,95780.00
